createdAt,value
2019-03-13T00:02:23.964Z,100024.77
2019-03-13T00:04:55.790Z,100026.55
2019-03-13T00:07:27.593Z,100017.61
2019-03-13T00:09:59.321Z,100006.02
2019-03-13T00:12:31.145Z,99992.02
2019-03-13T00:15:02.947Z,99988.59
2019-03-13T00:17:35.619Z,99989.66
2019-03-13T00:20:07.577Z,99980.30
2019-03-13T00:22:39.420Z,99979.19
2019-03-13T00:25:11.143Z,99966.81
2019-03-13T00:27:43.734Z,99968.42
2019-03-13T00:30:16.872Z,99967.01
2019-03-13T00:32:48.605Z,99972.61
2019-03-13T00:35:20.822Z,99966.90
2019-03-13T00:37:52.562Z,99958.91
2019-03-13T00:40:24.325Z,99955.40
2019-03-13T00:42:56.087Z,99952.73
2019-03-13T00:45:28.803Z,99945.01
2019-03-13T00:48:00.530Z,99940.73
2019-03-13T00:50:32.738Z,99929.40
2019-03-13T00:53:04.680Z,99921.78
2019-03-13T00:55:36.386Z,99921.89
2019-03-13T00:58:08.030Z,99912.77
2019-03-13T01:00:50.544Z,99912.57
2019-03-13T01:03:56.412Z,99917.33
2019-03-13T01:06:31.273Z,99902.11
2019-03-13T01:09:04.552Z,99893.55
2019-03-13T01:11:37.574Z,99890.39
2019-03-13T01:14:09.206Z,99874.52
2019-03-13T01:16:40.884Z,99867.86
2019-03-13T01:19:12.689Z,99858.91
2019-03-13T01:21:44.334Z,99866.06
2019-03-13T01:24:16.068Z,99857.69
2019-03-13T01:26:47.783Z,99854.61
2019-03-13T01:29:19.594Z,99838.17
2019-03-13T01:32:07.651Z,99833.98
2019-03-13T01:34:45.571Z,99828.55
2019-03-13T01:37:17.401Z,99809.33
2019-03-13T01:39:49.411Z,99806.58
2019-03-13T01:42:21.407Z,99796.30
2019-03-13T01:44:53.135Z,99795.43
2019-03-13T01:47:24.824Z,99786.09
2019-03-13T01:49:56.564Z,99772.13
2019-03-13T01:52:28.211Z,99767.81
2019-03-13T01:54:59.953Z,99757.27
2019-03-13T01:57:31.591Z,99762.75
2019-03-13T02:00:03.335Z,99751.05
2019-03-13T02:02:35.155Z,99747.14
2019-03-13T02:05:07.010Z,99742.19
2019-03-13T02:07:38.735Z,99733.82
2019-03-13T02:10:10.732Z,99738.67
2019-03-13T02:12:42.480Z,99729.63
2019-03-13T02:15:14.196Z,99723.05
2019-03-13T02:17:45.911Z,99715.11
2019-03-13T02:20:17.654Z,99713.66
2019-03-13T02:22:49.500Z,99706.54
2019-03-13T02:25:21.375Z,99699.50
2019-03-13T02:27:53.013Z,99695.24
2019-03-13T02:30:25.856Z,99688.20
2019-03-13T02:32:57.564Z,99681.42
2019-03-13T02:35:29.308Z,99677.62
2019-03-13T02:38:00.942Z,99677.25
2019-03-13T02:40:32.674Z,99680.67
2019-03-13T02:43:04.314Z,99673.10
2019-03-13T02:45:36.012Z,99664.32
2019-03-13T02:48:07.744Z,99663.31
2019-03-13T02:50:39.447Z,99662.98
2019-03-13T02:53:11.147Z,99653.41
2019-03-13T02:55:42.836Z,99646.74
2019-03-13T02:58:14.553Z,99647.41
2019-03-13T03:00:57.813Z,99665.02
2019-03-13T03:03:32.362Z,99669.80
2019-03-13T03:06:04.093Z,99664.73
2019-03-13T03:08:35.892Z,99657.98
2019-03-13T03:11:07.712Z,99655.03
2019-03-13T03:13:39.399Z,99660.73
2019-03-13T03:16:11.136Z,99660.06
2019-03-13T03:18:42.743Z,99658.65
2019-03-13T03:21:14.360Z,99658.82
2019-03-13T03:23:45.967Z,99653.78
2019-03-13T03:26:17.690Z,99656.28
2019-03-13T03:28:49.386Z,99652.49
2019-03-13T03:31:21.213Z,99656.75
2019-03-13T03:34:05.111Z,99654.58
2019-03-13T03:36:36.742Z,99646.08
2019-03-13T03:39:08.336Z,99644.33
2019-03-13T03:41:41.556Z,99646.62
2019-03-13T03:44:13.225Z,99637.50
2019-03-13T03:46:44.838Z,99635.00
2019-03-13T03:49:16.420Z,99640.45
2019-03-13T03:51:48.231Z,99638.62
2019-03-13T03:54:19.805Z,99633.95
2019-03-13T03:56:51.439Z,99633.84
2019-03-13T03:59:23.028Z,99631.66
2019-03-13T04:01:54.743Z,99623.30
2019-03-13T04:04:26.412Z,99621.25
2019-03-13T04:06:58.086Z,99613.50
2019-03-13T04:09:29.736Z,99615.13
2019-03-13T04:12:01.341Z,99610.05
2019-03-13T04:14:32.994Z,99615.50
2019-03-13T04:17:04.604Z,99612.45
2019-03-13T04:19:36.251Z,99616.79
2019-03-13T04:22:07.878Z,99614.75
2019-03-13T04:24:39.523Z,99617.58
2019-03-13T04:27:11.110Z,99616.83
2019-03-13T04:29:43.647Z,99621.58
2019-03-13T04:32:15.266Z,99616.28
2019-03-13T04:34:46.861Z,99628.78
2019-03-13T04:37:18.493Z,99626.62
2019-03-13T04:39:50.082Z,99631.69
2019-03-13T04:42:21.680Z,99635.84
2019-03-13T04:44:53.272Z,99636.16
2019-03-13T04:47:25.237Z,99637.59
2019-03-13T04:49:56.882Z,99639.73
2019-03-13T04:52:28.520Z,99641.44
2019-03-13T04:55:00.119Z,99648.52
2019-03-13T04:57:32.069Z,99648.02
2019-03-13T05:00:03.753Z,99651.93
2019-03-13T05:02:36.943Z,99648.98
2019-03-13T05:05:09.127Z,99648.55
2019-03-13T05:07:40.817Z,99640.54
2019-03-13T05:10:12.504Z,99643.77
2019-03-13T05:12:44.111Z,99647.43
2019-03-13T05:15:15.786Z,99636.69
2019-03-13T05:17:47.705Z,99630.86
2019-03-13T05:20:19.410Z,99640.48
2019-03-13T05:22:51.361Z,99639.89
2019-03-13T05:25:23.029Z,99645.97
2019-03-13T05:27:55.614Z,99655.31
2019-03-13T05:30:28.181Z,99656.73
2019-03-13T05:32:59.777Z,99671.55
2019-03-13T05:35:31.466Z,99681.85
2019-03-13T05:38:03.238Z,99691.91
2019-03-13T05:40:34.908Z,99700.50
2019-03-13T05:43:06.494Z,99704.73
2019-03-13T05:45:38.151Z,99707.45
2019-03-13T05:48:09.858Z,99710.55
2019-03-13T05:50:42.430Z,99713.05
2019-03-13T05:53:14.061Z,99732.88
2019-03-13T05:55:45.647Z,99727.17
2019-03-13T05:58:17.535Z,99727.95
2019-03-13T06:00:49.419Z,99726.11
2019-03-13T06:03:21.213Z,99725.77
2019-03-13T06:05:52.872Z,99715.57
2019-03-13T06:08:24.492Z,99714.19
2019-03-13T06:10:56.086Z,99719.52
2019-03-13T06:13:27.766Z,99716.52
2019-03-13T06:15:59.351Z,99719.39
2019-03-13T06:18:30.935Z,99719.77
2019-03-13T06:21:02.605Z,99722.03
2019-03-13T06:23:34.251Z,99733.66
2019-03-13T06:26:05.856Z,99740.11
2019-03-13T06:28:37.495Z,99743.94
2019-03-13T06:31:09.089Z,99747.53
2019-03-13T06:33:40.704Z,99745.06
2019-03-13T06:36:12.294Z,99745.73
2019-03-13T06:38:43.897Z,99743.20
2019-03-13T06:41:15.482Z,99743.29
2019-03-13T06:43:47.075Z,99742.37
2019-03-13T06:46:18.739Z,99748.83
2019-03-13T06:48:50.620Z,99752.66
2019-03-13T06:51:22.347Z,99758.25
2019-03-13T06:53:53.944Z,99763.64
2019-03-13T06:56:25.620Z,99770.95
2019-03-13T06:59:02.955Z,99765.23
2019-03-13T07:01:59.449Z,99771.70
2019-03-13T07:04:48.658Z,99770.69
2019-03-13T07:07:39.559Z,99778.80
2019-03-13T07:10:32.863Z,99778.22
2019-03-13T07:13:32.580Z,99781.27
2019-03-13T07:16:19.183Z,99781.76
2019-03-13T07:19:09.380Z,99789.81
2019-03-13T07:21:57.989Z,99795.73
2019-03-13T07:24:47.110Z,99795.64
2019-03-13T07:27:37.612Z,99796.54
2019-03-13T07:30:25.080Z,99810.75
2019-03-13T07:33:05.859Z,99805.67
2019-03-13T07:35:59.270Z,99810.63
2019-03-13T07:38:40.509Z,99817.97
2019-03-13T07:41:35.617Z,99822.34
2019-03-13T07:44:26.061Z,99830.14
2019-03-13T07:47:22.128Z,99828.55
2019-03-13T07:50:33.607Z,99832.31
2019-03-13T07:53:24.131Z,99832.45
2019-03-13T07:56:20.398Z,99840.16
2019-03-13T07:59:08.576Z,99846.54
2019-03-13T08:01:56.188Z,99847.19
2019-03-13T08:04:45.124Z,99844.48
2019-03-13T08:07:35.687Z,99858.34
2019-03-13T08:10:31.318Z,99862.94
2019-03-13T08:13:20.167Z,99858.16
2019-03-13T08:16:10.738Z,99868.30
2019-03-13T08:18:50.594Z,99872.25
2019-03-13T08:21:59.495Z,99870.61
2019-03-13T08:24:44.580Z,99877.45
2019-03-13T08:27:29.555Z,99895.29
2019-03-13T08:30:20.660Z,99890.47
2019-03-13T08:33:15.557Z,99885.87
2019-03-13T08:35:58.001Z,99892.49
2019-03-13T08:38:57.688Z,99892.62
2019-03-13T08:41:54.689Z,99898.70
2019-03-13T08:45:00.412Z,99901.97
2019-03-13T08:47:46.812Z,99913.01
2019-03-13T08:50:40.498Z,99904.23
2019-03-13T08:53:46.898Z,99909.02
2019-03-13T08:56:31.519Z,99914.33
2019-03-13T08:59:23.429Z,99919.39
2019-03-13T09:02:04.415Z,99939.05
2019-03-13T09:04:51.228Z,99920.47
2019-03-13T09:07:44.890Z,99925.39
2019-03-13T09:10:38.227Z,99920.74
2019-03-13T09:13:28.791Z,99928.83
2019-03-13T09:16:25.436Z,99953.70
2019-03-13T09:19:09.254Z,99945.34
2019-03-13T09:22:02.606Z,99974.42
2019-03-13T09:25:11.681Z,99958.08
2019-03-13T09:27:52.598Z,99958.13
2019-03-13T09:30:49.267Z,99963.12
2019-03-13T09:33:46.068Z,99966.16
2019-03-13T09:36:36.239Z,99954.36
2019-03-13T09:39:26.408Z,99964.08
2019-03-13T09:42:22.618Z,99967.75
2019-03-13T09:45:13.270Z,99958.08
2019-03-13T09:48:03.833Z,99991.27
2019-03-13T09:50:42.347Z,99971.89
2019-03-13T09:53:18.899Z,99972.30
2019-03-13T09:56:16.570Z,99971.92
2019-03-13T09:59:07.138Z,99996.52
2019-03-13T10:02:12.524Z,99988.44
2019-03-13T10:05:01.603Z,99977.93
2019-03-13T10:07:50.679Z,99976.00
2019-03-13T10:10:35.295Z,99981.69
2019-03-13T10:13:37.708Z,99983.90
2019-03-13T10:16:28.216Z,99970.44
2019-03-13T10:19:06.004Z,99957.84
2019-03-13T10:21:52.986Z,99962.50
2019-03-13T10:24:32.432Z,99974.28
2019-03-13T10:27:22.926Z,99966.53
2019-03-13T10:30:03.552Z,99967.88
2019-03-13T10:32:54.196Z,99967.58
2019-03-13T10:35:43.433Z,99970.89
2019-03-13T10:38:22.070Z,99984.20
2019-03-13T10:41:15.450Z,99975.80
2019-03-13T10:44:08.798Z,99980.93
2019-03-13T10:46:49.963Z,99996.04
2019-03-13T10:49:46.555Z,99973.61
2019-03-13T10:52:24.845Z,99981.41
2019-03-13T10:55:24.361Z,99964.06
2019-03-13T10:58:21.251Z,99958.36
2019-03-13T11:01:16.866Z,99957.27
2019-03-13T11:04:07.493Z,99965.44
2019-03-13T11:06:56.479Z,99965.07
2019-03-13T11:09:41.958Z,99974.56
2019-03-13T11:12:41.286Z,99969.20
2019-03-13T11:15:19.693Z,99965.63
2019-03-13T11:18:22.582Z,99966.53
2019-03-13T11:21:19.337Z,99967.06
2019-03-13T11:24:09.914Z,99961.73
2019-03-13T11:27:06.613Z,99967.00
2019-03-13T11:29:44.240Z,99971.64
2019-03-13T11:32:43.576Z,99962.39
2019-03-13T11:35:24.678Z,99960.17
2019-03-13T11:38:24.056Z,99954.30
2019-03-13T11:41:05.381Z,99961.59
2019-03-13T11:43:46.579Z,99947.12
2019-03-13T11:46:37.143Z,99938.92
2019-03-13T11:49:29.678Z,99951.58
2019-03-13T11:52:38.532Z,99948.04
2019-03-13T11:55:34.497Z,99939.58
2019-03-13T11:58:14.048Z,99942.39
2019-03-13T12:01:10.713Z,99944.70
2019-03-13T12:04:00.976Z,99937.03
2019-03-13T12:06:54.642Z,99953.52
2019-03-13T12:09:34.163Z,99942.98
2019-03-13T12:12:33.674Z,99935.31
2019-03-13T12:15:24.346Z,99931.97
2019-03-13T12:18:23.778Z,99927.94
2019-03-13T12:21:32.650Z,99917.13
2019-03-13T12:24:21.583Z,99929.38
2019-03-13T12:27:10.810Z,99931.56
2019-03-13T12:30:16.246Z,99913.97
2019-03-13T12:33:09.469Z,99926.33
2019-03-13T12:36:03.048Z,99906.69
2019-03-13T12:38:59.736Z,99900.63
2019-03-13T12:41:46.395Z,99911.04
2019-03-13T12:44:39.854Z,99893.51
2019-03-13T12:47:30.359Z,99900.83
2019-03-13T12:50:36.026Z,99900.05
2019-03-13T12:53:22.525Z,99905.30
2019-03-13T12:56:11.661Z,99895.16
2019-03-13T12:58:50.640Z,99893.78
2019-03-13T13:01:34.155Z,99897.33
2019-03-13T13:04:37.067Z,99914.31
2019-03-13T13:07:29.887Z,99904.77
2019-03-13T13:10:35.510Z,99901.36
2019-03-13T13:13:24.463Z,99902.84
2019-03-13T13:16:13.552Z,99892.78
2019-03-13T13:18:54.231Z,99894.23
2019-03-13T13:21:26.795Z,99888.44
2019-03-13T13:23:58.409Z,99887.09
2019-03-13T13:26:30.000Z,99877.52
2019-03-13T13:29:01.597Z,99882.43
2019-03-13T13:31:33.252Z,99877.66
2019-03-13T13:34:04.842Z,99878.16
2019-03-13T13:36:36.506Z,99893.14
2019-03-13T13:39:08.879Z,99873.84
2019-03-13T13:41:42.008Z,99882.99
2019-03-13T13:44:13.611Z,99878.98
2019-03-13T13:46:45.621Z,99871.87
2019-03-13T13:49:17.753Z,99869.25
2019-03-13T13:51:49.462Z,99883.87
2019-03-13T13:54:21.319Z,99864.98
2019-03-13T13:56:53.007Z,99865.17
2019-03-13T13:59:24.710Z,99852.59
2019-03-13T14:01:56.411Z,99877.79
2019-03-13T14:04:28.079Z,99861.77
2019-03-13T14:06:59.680Z,99856.92
2019-03-13T14:09:31.389Z,99865.05
2019-03-13T14:12:02.982Z,99861.56
2019-03-13T14:14:34.569Z,99869.25
2019-03-13T14:17:06.318Z,99868.41
2019-03-13T14:19:37.984Z,99865.52
2019-03-13T14:22:09.652Z,99859.72
2019-03-13T14:24:41.312Z,99857.88
2019-03-13T14:27:14.819Z,99851.03
2019-03-13T14:29:47.366Z,99855.67
2019-03-13T14:32:19.445Z,99860.30
2019-03-13T14:34:51.375Z,99854.89
2019-03-13T14:37:22.984Z,99858.09
2019-03-13T14:39:54.661Z,99858.06
2019-03-13T14:42:27.260Z,99857.11
2019-03-13T14:44:58.926Z,99849.52
2019-03-13T14:47:30.525Z,99844.67
2019-03-13T14:50:02.148Z,99841.53
2019-03-13T14:52:33.817Z,99848.17
2019-03-13T14:55:05.838Z,99833.91
2019-03-13T14:57:38.567Z,99837.14
2019-03-13T15:00:13.398Z,99841.44
2019-03-13T15:02:45.059Z,99844.36
2019-03-13T15:05:16.755Z,99846.30
2019-03-13T15:07:48.714Z,99834.83
2019-03-13T15:10:22.019Z,99836.77
2019-03-13T15:12:53.776Z,99836.09
2019-03-13T15:15:25.564Z,99838.03
2019-03-13T15:17:57.129Z,99842.19
2019-03-13T15:20:28.840Z,99844.86
2019-03-13T15:23:00.707Z,99845.77
2019-03-13T15:25:32.503Z,99836.51
2019-03-13T15:28:04.173Z,99841.09
2019-03-13T15:30:35.888Z,99847.57
2019-03-13T15:33:07.575Z,99836.94
2019-03-13T15:35:39.249Z,99852.95
2019-03-13T15:38:10.930Z,99845.14
2019-03-13T15:40:42.541Z,99842.79
2019-03-13T15:43:14.199Z,99835.98
2019-03-13T15:45:45.892Z,99836.96
2019-03-13T15:48:17.681Z,99835.28
2019-03-13T15:50:49.590Z,99835.44
2019-03-13T15:53:21.483Z,99835.61
2019-03-13T15:55:53.090Z,99843.10
2019-03-13T15:58:24.888Z,99839.23
2019-03-13T16:00:56.486Z,99840.80
2019-03-13T16:03:28.177Z,99835.20
2019-03-13T16:05:59.875Z,99835.35
2019-03-13T16:08:31.584Z,99835.35
2019-03-13T16:11:03.190Z,99833.05
2019-03-13T16:13:34.875Z,99829.06
2019-03-13T16:16:06.609Z,99828.61
2019-03-13T16:18:38.257Z,99833.27
2019-03-13T16:21:09.875Z,99826.91
2019-03-13T16:23:41.545Z,99821.68
2019-03-13T16:26:13.164Z,99818.44
2019-03-13T16:28:44.840Z,99813.20
2019-03-13T16:31:16.575Z,99818.59
2019-03-13T16:33:48.375Z,99814.87
2019-03-13T16:36:19.987Z,99812.03
2019-03-13T16:38:51.602Z,99807.94
2019-03-13T16:41:23.254Z,99816.06
2019-03-13T16:43:54.925Z,99809.76
2019-03-13T16:46:26.725Z,99810.42
2019-03-13T16:48:58.322Z,99815.17
2019-03-13T16:51:29.996Z,99814.66
2019-03-13T16:54:01.686Z,99811.77
2019-03-13T16:56:33.469Z,99807.62
2019-03-13T16:59:06.169Z,99811.30
2019-03-13T17:01:37.822Z,99806.34
2019-03-13T17:04:09.594Z,99806.33
2019-03-13T17:06:41.291Z,99802.31
2019-03-13T17:09:12.955Z,99801.80
2019-03-13T17:11:44.854Z,99792.30
2019-03-13T17:14:16.557Z,99807.86
2019-03-13T17:16:48.406Z,99799.81
2019-03-13T17:19:20.076Z,99799.70
2019-03-13T17:21:51.695Z,99796.30
2019-03-13T17:24:23.310Z,99793.09
2019-03-13T17:26:55.007Z,99794.48
2019-03-13T17:29:26.684Z,99804.13
2019-03-13T17:31:58.398Z,99793.79
2019-03-13T17:34:30.532Z,99794.37
2019-03-13T17:37:02.229Z,99787.91
2019-03-13T17:39:34.171Z,99787.08
2019-03-13T17:42:05.796Z,99789.63
2019-03-13T17:44:37.398Z,99796.36
2019-03-13T17:47:08.993Z,99794.16
2019-03-13T17:49:40.599Z,99792.92
2019-03-13T17:52:12.207Z,99792.66
2019-03-13T17:54:43.868Z,99787.91
2019-03-13T17:57:15.561Z,99787.91
2019-03-13T17:59:47.205Z,99784.76
2019-03-13T18:02:18.897Z,99790.13
2019-03-13T18:04:50.608Z,99788.67
2019-03-13T18:07:22.420Z,99786.64
2019-03-13T18:09:54.092Z,99782.87
2019-03-13T18:12:25.749Z,99779.83
2019-03-13T18:14:57.413Z,99780.05
2019-03-13T18:17:29.255Z,99782.98
2019-03-13T18:20:00.903Z,99776.16
2019-03-13T18:22:32.670Z,99772.25
2019-03-13T18:25:04.534Z,99768.73
2019-03-13T18:27:36.288Z,99766.41
2019-03-13T18:30:11.680Z,99764.95
2019-03-13T18:32:43.352Z,99760.57
2019-03-13T18:35:15.027Z,99761.77
2019-03-13T18:37:46.716Z,99763.78
2019-03-13T18:40:18.498Z,99757.05
2019-03-13T18:42:50.290Z,99755.02
2019-03-13T18:45:23.717Z,99756.02
2019-03-13T18:47:55.437Z,99753.53
2019-03-13T18:50:27.191Z,99750.01
2019-03-13T18:52:58.860Z,99748.20
2019-03-13T18:55:30.550Z,99757.33
2019-03-13T18:58:02.357Z,99758.34
2019-03-13T19:00:34.290Z,99750.03
2019-03-13T19:03:06.103Z,99745.90
2019-03-13T19:05:37.858Z,99745.54
2019-03-13T19:08:09.560Z,99746.35
2019-03-13T19:10:44.822Z,99743.05
2019-03-13T19:13:19.818Z,99743.94
2019-03-13T19:15:52.122Z,99740.43
2019-03-13T19:18:25.111Z,99737.97
2019-03-13T19:20:58.587Z,99736.52
2019-03-13T19:23:30.904Z,99729.34
2019-03-13T19:26:03.100Z,99729.45
2019-03-13T19:28:35.076Z,99721.66
2019-03-13T19:31:06.845Z,99726.41
2019-03-13T19:33:39.187Z,99718.47
2019-03-13T19:36:10.992Z,99715.67
2019-03-13T19:38:42.891Z,99711.06
2019-03-13T19:41:14.675Z,99715.09
2019-03-13T19:43:46.459Z,99710.59
2019-03-13T19:46:18.394Z,99709.72
2019-03-13T19:48:52.876Z,99703.63
2019-03-13T19:51:24.706Z,99698.19
2019-03-13T19:53:56.475Z,99693.08
2019-03-13T19:56:29.553Z,99694.92
2019-03-13T19:59:03.077Z,99694.42
2019-03-13T20:01:35.646Z,99696.37
2019-03-13T20:04:07.556Z,99693.21
2019-03-13T20:06:42.493Z,99690.65
2019-03-13T20:09:13.507Z,99685.28
2019-03-13T20:11:46.872Z,99684.42
2019-03-13T20:14:19.212Z,99682.97
2019-03-13T20:16:50.963Z,99684.20
2019-03-13T20:19:23.869Z,99680.29
2019-03-13T20:21:55.548Z,99676.77
2019-03-13T20:24:27.368Z,99676.16
2019-03-13T20:26:59.102Z,99672.86
2019-03-13T20:29:33.692Z,99676.63
2019-03-13T20:32:05.415Z,99668.45
2019-03-13T20:34:37.138Z,99667.75
2019-03-13T20:37:08.848Z,99663.12
2019-03-13T20:39:40.582Z,99660.94
2019-03-13T20:42:12.350Z,99660.30
2019-03-13T20:44:44.127Z,99658.84
2019-03-13T20:47:15.859Z,99662.00
2019-03-13T20:49:47.596Z,99659.07
2019-03-13T20:52:20.554Z,99654.33
2019-03-13T20:54:52.380Z,99657.00
2019-03-13T20:57:24.097Z,99655.44
2019-03-13T20:59:55.912Z,99658.26
2019-03-13T21:02:27.802Z,99651.17
2019-03-13T21:04:59.474Z,99647.40
2019-03-13T21:07:31.147Z,99641.95
2019-03-13T21:10:02.829Z,99633.30
2019-03-13T21:12:34.897Z,99634.67
2019-03-13T21:15:07.856Z,99637.20
2019-03-13T21:17:39.819Z,99626.87
2019-03-13T21:20:12.555Z,99628.67
2019-03-13T21:22:44.239Z,99624.28
2019-03-13T21:25:17.000Z,99622.58
2019-03-13T21:27:48.680Z,99614.44
2019-03-13T21:30:22.834Z,99620.63
2019-03-13T21:32:54.585Z,99613.34
2019-03-13T21:35:26.269Z,99616.64
2019-03-13T21:37:57.914Z,99614.82
2019-03-13T21:40:32.433Z,99611.53
2019-03-13T21:43:03.967Z,99603.74
2019-03-13T21:45:40.990Z,99607.26
2019-03-13T21:48:09.393Z,99604.83
2019-03-13T21:50:41.033Z,99600.95
2019-03-13T21:53:12.740Z,99600.92
2019-03-13T21:55:44.407Z,99607.52
2019-03-13T21:58:16.464Z,99597.91
2019-03-13T22:00:48.661Z,99604.58
2019-03-13T22:03:28.737Z,99602.66
2019-03-13T22:05:53.748Z,99595.20
2019-03-13T22:08:25.429Z,99602.91
2019-03-13T22:10:57.094Z,99596.70
2019-03-13T22:13:28.801Z,99598.41
2019-03-13T22:16:00.638Z,99591.83
2019-03-13T22:18:32.345Z,99587.19
2019-03-13T22:21:05.322Z,99594.75
2019-03-13T22:23:37.538Z,99581.73
2019-03-13T22:26:10.599Z,99589.26
2019-03-13T22:28:46.443Z,99579.02
2019-03-13T22:31:22.272Z,99582.42
2019-03-13T22:34:01.315Z,99578.80
2019-03-13T22:36:46.074Z,99569.50
2019-03-13T22:39:20.253Z,99579.13
2019-03-13T22:41:56.993Z,99571.23
2019-03-13T22:44:32.126Z,99566.81
2019-03-13T22:47:09.383Z,99565.12
2019-03-13T22:49:49.536Z,99565.41
2019-03-13T22:52:26.526Z,99559.31
2019-03-13T22:55:00.667Z,99561.72
2019-03-13T22:57:38.328Z,99555.30
2019-03-13T23:00:49.821Z,99556.50
2019-03-13T23:03:27.319Z,99552.14
2019-03-13T23:06:02.042Z,99547.04
2019-03-13T23:08:40.432Z,99537.89
2019-03-13T23:11:19.430Z,99531.95
2019-03-13T23:13:57.664Z,99536.33
2019-03-13T23:16:34.282Z,99531.22
2019-03-13T23:19:28.684Z,99533.39
2019-03-13T23:22:07.970Z,99531.22
2019-03-13T23:24:45.606Z,99526.48
2019-03-13T23:27:21.538Z,99526.88
2019-03-13T23:29:58.038Z,99527.95
2019-03-13T23:32:36.161Z,99531.86
2019-03-13T23:35:15.290Z,99532.48
2019-03-13T23:37:52.235Z,99525.89
2019-03-13T23:40:26.117Z,99529.19
2019-03-13T23:43:00.285Z,99522.13
2019-03-13T23:45:34.426Z,99523.83
2019-03-13T23:48:11.613Z,99527.59
2019-03-13T23:50:47.115Z,99521.02
2019-03-13T23:53:23.370Z,99526.76
2019-03-13T23:56:00.654Z,99519.20
2019-03-13T23:58:35.637Z,99515.07
